Time;durP1;ratioP1;P1;durP2;ratioP2;P2;SDS_P1;SDS_P2;PMS_P1;PMS_P2;Temp;Humidity;BMP_temperature;BMP_pressure;BME280_temperature;BME280_humidity;BME280_pressure;Samples;Min_cycle;Max_cycle;Signal;HPM_P1;HPM_P2
2023/07/13 00:00:22;;;;;;;2.53;1.15;;;;;;;16.48;62.11;101312.88;5030826;28;20087;-90
2023/07/13 00:02:48;;;;;;;4.63;1.33;;;;;;;16.48;62.30;101315.53;5031039;28;20028;-90
2023/07/13 00:05:13;;;;;;;4.20;1.25;;;;;;;16.45;62.31;101318.28;5029925;28;20025;-92
2023/07/13 00:07:38;;;;;;;4.53;0.98;;;;;;;16.42;62.39;101315.78;5030914;28;20515;-91
2023/07/13 00:10:05;;;;;;;3.45;0.80;;;;;;;16.40;62.52;101317.59;5030081;28;20451;-91
2023/07/13 00:12:33;;;;;;;2.90;0.85;;;;;;;16.35;62.78;101314.34;5029259;28;20029;-91
2023/07/13 00:15:01;;;;;;;3.55;0.98;;;;;;;16.33;63.02;101313.56;5026516;28;20146;-90
2023/07/13 00:17:27;;;;;;;4.20;1.00;;;;;;;16.32;62.83;101311.84;5029067;28;20018;-91
2023/07/13 00:19:53;;;;;;;4.20;0.90;;;;;;;16.31;63.06;101318.84;5029973;28;20113;-91
2023/07/13 00:22:19;;;;;;;1.65;0.80;;;;;;;16.28;63.29;101307.63;5028336;28;20065;-91
2023/07/13 00:24:44;;;;;;;3.85;1.20;;;;;;;16.28;63.15;101313.75;5030271;28;20041;-90
2023/07/13 00:27:10;;;;;;;3.22;1.00;;;;;;;16.28;63.27;101318.13;5028657;28;20499;-90
2023/07/13 00:29:36;;;;;;;2.85;1.00;;;;;;;16.24;63.76;101318.25;5028551;28;20034;-90
2023/07/13 00:32:04;;;;;;;3.58;1.20;;;;;;;16.21;63.70;101322.78;5028755;28;20056;-91
2023/07/13 00:34:30;;;;;;;5.07;0.95;;;;;;;16.20;64.02;101321.09;5029864;28;20025;-90
2023/07/13 00:36:55;;;;;;;3.33;1.00;;;;;;;16.17;64.22;101313.34;5030872;28;20022;-91
2023/07/13 00:39:20;;;;;;;2.55;1.00;;;;;;;16.14;64.37;101323.97;5030370;28;20060;-92
2023/07/13 00:41:46;;;;;;;3.35;0.80;;;;;;;16.12;64.48;101312.69;5030317;28;20056;-91
2023/07/13 00:44:15;;;;;;;3.78;0.90;;;;;;;16.09;64.50;101316.28;5011997;28;20400;-90
2023/07/13 00:46:41;;;;;;;3.78;0.90;;;;;;;16.05;64.81;101314.72;5028696;28;20048;-90
2023/07/13 00:49:10;;;;;;;2.65;0.90;;;;;;;16.02;64.96;101320.09;5030594;28;20029;-90
2023/07/13 00:51:49;;;;;;;3.53;1.00;;;;;;;16.00;64.50;101327.16;5030317;28;20051;-90
2023/07/13 00:54:19;;;;;;;5.15;0.93;;;;;;;15.97;64.96;101332.53;5029805;28;20362;-91
2023/07/13 00:56:46;;;;;;;2.45;0.85;;;;;;;15.93;65.34;101332.66;5030613;28;20428;-92
2023/07/13 00:59:14;;;;;;;2.28;1.00;;;;;;;15.88;65.53;101333.75;5028923;28;20029;-92
2023/07/13 01:01:40;;;;;;;1.45;0.80;;;;;;;15.87;65.57;101335.53;5029695;28;20073;-91
2023/07/13 01:04:07;;;;;;;3.03;0.90;;;;;;;15.82;65.99;101329.59;5028841;28;20492;-92
2023/07/13 01:06:35;;;;;;;3.67;0.90;;;;;;;15.81;66.06;101332.25;5028639;28;20074;-92
2023/07/13 01:09:01;;;;;;;3.15;0.80;;;;;;;15.78;66.16;101323.63;5028309;28;20118;-91
2023/07/13 01:11:26;;;;;;;3.67;1.30;;;;;;;15.77;66.49;101324.53;5028155;28;20538;-94
2023/07/13 01:13:51;;;;;;;2.15;0.88;;;;;;;15.75;66.76;101320.25;5028927;28;20017;-91
2023/07/13 01:16:33;;;;;;;3.67;1.13;;;;;;;15.73;65.78;101324.69;5028792;28;20029;-90
2023/07/13 01:19:01;;;;;;;3.30;0.90;;;;;;;15.71;66.93;101323.91;5029646;28;20041;-90
2023/07/13 01:21:28;;;;;;;1.60;0.75;;;;;;;15.70;67.01;101324.84;5009634;28;20029;-91
2023/07/13 01:23:54;;;;;;;2.45;0.80;;;;;;;15.66;67.14;101333.72;5028739;28;20437;-92
2023/07/13 01:26:19;;;;;;;2.80;0.88;;;;;;;15.65;67.40;101332.03;5027779;28;20105;-90
2023/07/13 01:28:45;;;;;;;3.90;0.90;;;;;;;15.59;67.38;101326.09;5029259;28;20109;-90
2023/07/13 01:31:11;;;;;;;2.58;1.13;;;;;;;15.57;67.75;101330.53;5028114;28;20473;-90
2023/07/13 01:33:39;;;;;;;3.85;1.23;;;;;;;15.53;68.11;101328.97;5026683;28;20118;-91
2023/07/13 01:36:06;;;;;;;3.30;0.90;;;;;;;15.52;68.06;101337.75;5027416;28;20025;-92
2023/07/13 01:38:34;;;;;;;2.15;0.80;;;;;;;15.52;68.26;101335.13;5030811;28;20017;-92
2023/07/13 01:40:59;;;;;;;3.28;0.98;;;;;;;15.53;68.27;101333.34;5027648;28;20061;-91
2023/07/13 01:43:24;;;;;;;3.70;1.00;;;;;;;15.52;68.44;101329.00;5029123;28;20057;-91
2023/07/13 01:45:50;;;;;;;2.28;0.95;;;;;;;15.53;68.69;101328.09;5027569;28;20481;-91
2023/07/13 01:48:15;;;;;;;3.55;0.95;;;;;;;15.51;68.56;101333.41;5027019;28;20033;-93
2023/07/13 01:50:40;;;;;;;3.70;1.10;;;;;;;15.51;68.98;101345.66;5028346;28;20096;-90
2023/07/13 01:53:06;;;;;;;3.03;0.80;;;;;;;15.51;68.79;101341.28;5027627;28;20477;-90
2023/07/13 01:55:32;;;;;;;5.10;1.83;;;;;;;15.51;68.85;101337.78;5033464;28;20035;-92
2023/07/13 01:57:57;;;;;;;2.33;1.00;;;;;;;15.50;69.19;101333.47;5048404;28;20041;-91
2023/07/13 02:00:23;;;;;;;4.40;0.80;;;;;;;15.48;69.43;101336.16;5028567;28;20623;-93
2023/07/13 02:02:48;;;;;;;1.85;0.82;;;;;;;15.47;69.16;101340.53;5028959;28;20104;-92
2023/07/13 02:05:14;;;;;;;2.35;0.90;;;;;;;15.46;69.59;101340.59;5028596;28;20086;-91
2023/07/13 02:07:40;;;;;;;3.20;1.00;;;;;;;15.45;69.63;101339.75;5028363;28;20425;-91
2023/07/13 02:10:07;;;;;;;3.35;1.00;;;;;;;15.43;69.50;101332.84;5029361;28;20026;-91
2023/07/13 02:12:34;;;;;;;2.58;0.93;;;;;;;15.43;69.71;101346.81;5028333;28;20029;-91
2023/07/13 02:14:59;;;;;;;4.13;1.20;;;;;;;15.40;69.87;101349.56;5026143;28;20025;-91
2023/07/13 02:17:26;;;;;;;2.85;1.08;;;;;;;15.39;69.95;101346.97;5028101;28;20045;-90
2023/07/13 02:19:52;;;;;;;1.75;0.90;;;;;;;15.38;70.04;101346.13;5029074;28;20021;-92
2023/07/13 02:22:17;;;;;;;3.97;1.20;;;;;;;15.36;70.16;101341.88;5028900;28;20121;-91
2023/07/13 02:24:42;;;;;;;1.88;0.90;;;;;;;15.30;70.28;101338.56;5025639;28;20151;-91
2023/07/13 02:27:07;;;;;;;2.67;0.90;;;;;;;15.29;70.51;101339.47;5026854;28;20112;-92
2023/07/13 02:29:33;;;;;;;5.90;1.10;;;;;;;15.28;70.68;101340.38;5026567;28;20167;-92
2023/07/13 02:31:58;;;;;;;3.67;1.08;;;;;;;15.28;70.99;101337.75;5028485;28;20091;-92
2023/07/13 02:34:23;;;;;;;2.80;1.08;;;;;;;15.25;71.34;101337.03;5029193;28;20033;-93
2023/07/13 02:36:49;;;;;;;4.18;1.00;;;;;;;15.24;71.39;101343.19;5009704;28;20025;-92
2023/07/13 02:39:15;;;;;;;4.05;1.27;;;;;;;15.21;71.53;101338.88;5028562;28;20083;-90
2023/07/13 02:41:40;;;;;;;3.22;1.20;;;;;;;15.19;71.59;101340.75;5027738;28;20113;-90
2023/07/13 02:44:07;;;;;;;4.18;1.08;;;;;;;15.18;71.92;101345.13;5027809;28;20424;-91
2023/07/13 02:46:34;;;;;;;4.72;1.10;;;;;;;15.15;71.99;101339.97;5027248;28;20397;-91
2023/07/13 02:48:59;;;;;;;4.10;1.08;;;;;;;15.16;72.33;101348.72;5028690;28;20034;-93
2023/07/13 02:51:25;;;;;;;4.53;1.25;;;;;;;15.13;72.43;101346.19;5029724;28;20087;-89
2023/07/13 02:53:51;;;;;;;4.00;1.30;;;;;;;15.13;72.38;101356.69;5009246;28;20025;-91
2023/07/13 02:56:16;;;;;;;2.85;1.10;;;;;;;15.10;72.48;101349.78;5009294;28;20408;-92
2023/07/13 02:58:42;;;;;;;5.03;1.02;;;;;;;15.09;72.57;101355.94;5027538;28;20052;-91
2023/07/13 03:01:09;;;;;;;3.22;1.10;;;;;;;15.08;72.78;101358.59;5028413;28;20034;-89
2023/07/13 03:03:34;;;;;;;4.38;1.08;;;;;;;15.06;72.83;101361.28;5029761;28;20029;-92
2023/07/13 03:06:03;;;;;;;4.22;1.00;;;;;;;15.05;72.94;101358.72;5033254;28;20087;-92
2023/07/13 03:08:28;;;;;;;3.92;1.25;;;;;;;15.02;73.06;101360.56;5030964;28;20056;-91
2023/07/13 03:11:01;;;;;;;5.65;1.25;;;;;;;15.01;72.95;101360.59;5014770;28;20021;-91
2023/07/13 03:13:27;;;;;;;3.60;1.00;;;;;;;15.00;73.24;101366.75;5030246;28;20095;-92
2023/07/13 03:15:52;;;;;;;4.10;1.20;;;;;;;15.00;73.33;101364.13;5031638;28;20025;-91
2023/07/13 03:18:18;;;;;;;4.88;1.10;;;;;;;14.99;73.61;101362.41;5029500;28;20504;-92
2023/07/13 03:20:43;;;;;;;4.65;1.10;;;;;;;14.96;73.80;101358.16;5031162;28;20060;-91
2023/07/13 03:23:09;;;;;;;2.50;1.13;;;;;;;14.95;73.94;101356.44;5029834;28;20042;-91
2023/07/13 03:25:34;;;;;;;4.70;1.27;;;;;;;14.93;74.12;101355.63;5031991;28;20041;-93
2023/07/13 03:28:00;;;;;;;4.22;1.25;;;;;;;14.92;74.33;101359.16;5027642;28;20025;-92
2023/07/13 03:30:25;;;;;;;5.53;1.38;;;;;;;14.91;74.41;101364.47;5029731;28;20465;-91
2023/07/13 03:32:50;;;;;;;4.60;1.15;;;;;;;14.88;74.55;101365.41;5030614;28;20022;-91
2023/07/13 03:35:16;;;;;;;3.55;1.23;;;;;;;14.87;74.79;101366.31;5031929;28;20021;-92
2023/07/13 03:37:42;;;;;;;4.55;1.25;;;;;;;14.84;75.04;101369.91;5029675;28;20032;-90
2023/07/13 03:40:09;;;;;;;3.72;1.23;;;;;;;14.82;75.06;101374.34;5030323;28;20028;-90
2023/07/13 03:42:34;;;;;;;4.10;1.20;;;;;;;14.84;75.42;101376.94;5030674;28;20372;-91
2023/07/13 03:44:59;;;;;;;4.22;1.30;;;;;;;14.81;75.51;101377.88;5030301;28;20038;-92
2023/07/13 03:47:25;;;;;;;3.95;1.33;;;;;;;14.79;75.75;101378.84;5028858;28;20032;-92
2023/07/13 03:49:50;;;;;;;5.60;1.27;;;;;;;14.79;75.90;101373.59;5030541;28;20464;-90
2023/07/13 03:52:15;;;;;;;5.90;1.35;;;;;;;14.79;76.00;101384.09;5031676;28;20507;-91
2023/07/13 03:54:41;;;;;;;4.72;1.40;;;;;;;14.79;76.54;101384.09;5031689;28;20021;-90
2023/07/13 03:57:06;;;;;;;5.35;1.27;;;;;;;14.78;76.26;101390.22;5031419;28;20021;-91
2023/07/13 03:59:31;;;;;;;6.40;1.50;;;;;;;14.76;76.32;101389.44;5032493;28;20468;-90
2023/07/13 04:01:57;;;;;;;6.65;1.50;;;;;;;14.74;77.10;101393.84;5030852;28;20108;-92
2023/07/13 04:04:22;;;;;;;3.55;1.30;;;;;;;14.74;76.64;101393.84;5031615;28;20018;-86
2023/07/13 04:06:47;;;;;;;3.83;1.60;;;;;;;14.72;76.96;101394.75;5056192;28;20040;-90
2023/07/13 04:09:13;;;;;;;6.03;1.50;;;;;;;14.73;77.12;101390.41;5041348;28;20050;-92
2023/07/13 04:11:38;;;;;;;4.97;1.60;;;;;;;14.72;77.23;101397.38;5030952;28;20067;-92
2023/07/13 04:14:04;;;;;;;3.65;1.30;;;;;;;14.74;77.14;101402.59;5029631;28;20025;-93
2023/07/13 04:16:30;;;;;;;5.85;1.52;;;;;;;14.75;77.22;101404.28;5030757;28;20021;-91
2023/07/13 04:18:59;;;;;;;4.55;1.90;;;;;;;14.76;77.20;101402.53;5028699;28;20376;-91
2023/07/13 04:21:29;;;;;;;6.72;1.45;;;;;;;14.78;77.34;101403.31;4996908;28;20354;-91
2023/07/13 04:23:55;;;;;;;5.65;1.70;;;;;;;14.81;77.44;101405.84;5027518;28;20045;-91
2023/07/13 04:26:20;;;;;;;8.43;1.60;;;;;;;14.81;77.63;101400.59;5029346;28;20029;-90
2023/07/13 04:28:47;;;;;;;7.15;1.90;;;;;;;14.83;77.69;101401.41;5011118;28;20070;-91
2023/07/13 04:31:12;;;;;;;5.30;1.50;;;;;;;14.86;78.05;101409.13;5028458;28;20022;-90
2023/07/13 04:33:37;;;;;;;5.13;1.60;;;;;;;14.88;78.21;101404.72;5027598;28;20044;-90
2023/07/13 04:36:04;;;;;;;6.38;1.80;;;;;;;14.92;78.17;101405.47;5028228;28;20028;-91
2023/07/13 04:38:32;;;;;;;5.57;2.25;;;;;;;14.96;78.36;101418.41;5007022;28;20041;-91
2023/07/13 04:41:02;;;;;;;6.78;1.83;;;;;;;14.97;78.44;101412.25;5027648;28;20028;-91
2023/07/13 04:43:29;;;;;;;6.05;1.77;;;;;;;15.00;78.28;101414.78;5029119;28;20025;-91
2023/07/13 04:45:54;;;;;;;4.78;1.80;;;;;;;15.02;78.51;101417.34;5028883;28;20461;-91
2023/07/13 04:48:20;;;;;;;7.53;2.40;;;;;;;15.05;78.82;101417.22;5028975;28;20048;-91
2023/07/13 04:50:46;;;;;;;5.50;1.88;;;;;;;15.08;79.06;101421.50;5030640;28;20024;-91
2023/07/13 04:53:12;;;;;;;8.52;2.17;;;;;;;15.10;79.15;101422.31;5025487;28;20037;-90
2023/07/13 04:55:38;;;;;;;7.38;2.83;;;;;;;15.13;79.65;101419.56;5031341;28;20028;-91
2023/07/13 04:58:04;;;;;;;10.13;3.30;;;;;;;15.16;79.36;101420.31;5030391;28;20413;-90
2023/07/13 05:00:30;;;;;;;11.48;3.42;;;;;;;15.21;79.63;101433.25;5029901;28;20025;-90
2023/07/13 05:02:57;;;;;;;9.82;3.13;;;;;;;15.25;79.22;101429.63;5026092;28;20044;-91
2023/07/13 05:05:24;;;;;;;11.15;3.78;;;;;;;15.29;79.73;101428.59;5027748;28;20116;-91
2023/07/13 05:07:49;;;;;;;10.55;3.92;;;;;;;15.32;80.17;101436.34;5028263;28;20049;-91
2023/07/13 05:10:15;;;;;;;11.63;4.40;;;;;;;15.36;80.04;101436.25;5026339;28;20883;-89
2023/07/13 05:12:40;;;;;;;10.90;4.20;;;;;;;15.41;79.95;101439.53;5027347;28;20041;-92
2023/07/13 05:15:06;;;;;;;11.00;4.20;;;;;;;15.42;80.57;101436.88;5026424;28;20049;-91
2023/07/13 05:17:32;;;;;;;13.00;4.57;;;;;;;15.47;80.28;101439.31;5028825;28;20028;-90
2023/07/13 05:19:57;;;;;;;11.63;4.50;;;;;;;15.51;80.69;101434.81;5028694;28;20447;-90
2023/07/13 05:22:23;;;;;;;9.63;4.57;;;;;;;15.54;80.47;101445.19;5028818;28;20535;-90
2023/07/13 05:24:48;;;;;;;12.68;5.10;;;;;;;15.57;80.48;101451.19;5028905;28;20037;-90
2023/07/13 05:27:13;;;;;;;12.63;5.07;;;;;;;15.62;80.54;101459.75;5025139;28;20048;-90
2023/07/13 05:29:39;;;;;;;15.18;5.22;;;;;;;15.67;80.63;101448.22;5031283;28;20021;-90
2023/07/13 05:32:04;;;;;;;13.77;5.40;;;;;;;15.69;80.09;101451.66;5026730;28;20199;-90
2023/07/13 05:34:30;;;;;;;12.75;5.35;;;;;;;15.72;80.27;101451.50;5029993;28;20028;-91
2023/07/13 05:36:55;;;;;;;13.38;6.05;;;;;;;15.75;80.33;101448.78;5028612;28;20029;-90
2023/07/13 05:39:21;;;;;;;11.55;5.55;;;;;;;15.81;80.08;101459.06;5026786;28;20366;-90
2023/07/13 05:41:46;;;;;;;15.35;6.07;;;;;;;15.84;79.49;101464.19;5025508;28;20032;-90
2023/07/13 05:44:11;;;;;;;13.85;5.75;;;;;;;15.85;80.02;101465.94;5030173;28;20021;-89
2023/07/13 05:46:37;;;;;;;15.73;6.53;;;;;;;15.88;79.92;101460.56;5030252;28;20022;-91
2023/07/13 05:49:03;;;;;;;11.88;6.10;;;;;;;15.91;80.03;101460.44;5028132;28;20129;-90
2023/07/13 05:51:28;;;;;;;16.02;6.10;;;;;;;15.96;79.77;101459.41;5029735;28;20022;-91
2023/07/13 05:53:54;;;;;;;12.98;5.88;;;;;;;16.00;79.40;101469.72;5029341;28;20108;-90
2023/07/13 05:56:19;;;;;;;14.30;6.38;;;;;;;16.03;79.52;101472.22;5029870;28;20032;-90
2023/07/13 05:58:44;;;;;;;14.70;5.93;;;;;;;16.03;79.92;101468.75;5028689;28;20029;-90
2023/07/13 06:01:12;;;;;;;14.30;5.90;;;;;;;16.06;79.80;101468.63;5028149;28;20040;-90
2023/07/13 06:03:38;;;;;;;12.65;5.63;;;;;;;16.13;79.90;101466.63;5029182;28;20025;-90
2023/07/13 06:06:05;;;;;;;13.73;5.97;;;;;;;16.20;79.60;101474.22;5030027;28;20021;-90
2023/07/13 06:08:31;;;;;;;12.57;5.90;;;;;;;16.23;78.83;101484.56;5030055;28;20048;-92
2023/07/13 06:11:05;;;;;;;15.50;6.47;;;;;;;16.24;79.05;101486.28;5011960;28;20021;-90
2023/07/13 06:13:31;;;;;;;13.00;6.22;;;;;;;16.23;79.20;101487.19;5028578;28;20551;-90
2023/07/13 06:15:56;;;;;;;12.70;5.97;;;;;;;16.23;79.62;101487.19;5030054;28;20097;-90
2023/07/13 06:18:21;;;;;;;16.45;6.25;;;;;;;16.25;79.54;101495.03;5029441;28;20026;-90
2023/07/13 06:20:47;;;;;;;13.25;6.35;;;;;;;16.27;79.61;101492.34;5028250;28;20025;-92
2023/07/13 06:23:12;;;;;;;12.25;6.50;;;;;;;16.29;79.57;101496.63;5029455;28;20139;-91
2023/07/13 06:25:37;;;;;;;14.98;6.63;;;;;;;16.31;79.53;101493.94;5029025;28;20079;-92
2023/07/13 06:28:03;;;;;;;12.00;6.43;;;;;;;16.37;79.87;101504.19;5026930;28;20125;-90
2023/07/13 06:30:28;;;;;;;10.27;5.95;;;;;;;16.44;79.55;101495.16;5027489;28;20159;-91
2023/07/13 06:32:54;;;;;;;12.57;6.07;;;;;;;16.53;78.95;101502.66;5029184;28;20040;-90
2023/07/13 06:35:19;;;;;;;16.13;7.15;;;;;;;16.56;78.52;101492.97;5024024;28;20428;-91
2023/07/13 06:37:44;;;;;;;13.43;6.55;;;;;;;16.59;78.70;101493.69;5027290;28;20037;-91
2023/07/13 06:40:10;;;;;;;13.98;6.63;;;;;;;16.61;78.51;101497.09;5029371;28;20029;-92
2023/07/13 06:42:35;;;;;;;12.63;6.40;;;;;;;16.65;78.48;101498.66;5030188;28;20496;-90
2023/07/13 06:45:01;;;;;;;14.57;6.30;;;;;;;16.69;78.26;101505.50;5027765;28;20171;-90
2023/07/13 06:47:27;;;;;;;13.88;6.60;;;;;;;16.73;78.06;101508.88;5029179;28;20029;-91
2023/07/13 06:49:52;;;;;;;16.60;6.72;;;;;;;16.76;77.82;101514.00;5027213;28;20056;-90
2023/07/13 06:52:17;;;;;;;15.80;6.93;;;;;;;16.77;77.51;101510.44;5027930;28;20065;-91
2023/07/13 06:54:43;;;;;;;12.13;6.43;;;;;;;16.81;77.19;101513.84;5027939;28;20468;-91
2023/07/13 06:57:08;;;;;;;14.88;6.78;;;;;;;16.87;77.59;101513.56;5030796;28;20030;-87
2023/07/13 06:59:34;;;;;;;14.00;6.00;;;;;;;16.92;77.84;101513.34;5025808;28;20026;-91
2023/07/13 07:02:04;;;;;;;16.17;6.55;;;;;;;16.93;77.20;101517.69;5030421;28;20399;-94
2023/07/13 07:04:29;;;;;;;14.27;6.70;;;;;;;16.94;77.40;101519.41;5028174;28;20036;-92
2023/07/13 07:06:54;;;;;;;14.18;6.60;;;;;;;16.93;77.39;101509.81;5027199;28;20389;-92
2023/07/13 07:09:20;;;;;;;11.90;6.43;;;;;;;16.98;76.67;101515.78;5027045;28;20140;-91
2023/07/13 07:11:45;;;;;;;13.88;6.70;;;;;;;17.01;77.01;101515.66;5027179;28;20059;-90
2023/07/13 07:14:10;;;;;;;13.27;6.45;;;;;;;17.05;77.29;101522.50;5009300;28;20025;-91
2023/07/13 07:16:35;;;;;;;12.90;6.65;;;;;;;17.07;76.45;101520.66;5026108;28;20037;-93
2023/07/13 07:19:01;;;;;;;13.18;6.13;;;;;;;17.05;77.22;101519.88;5026161;28;20029;-90
2023/07/13 07:21:27;;;;;;;13.00;6.53;;;;;;;17.08;76.43;101524.13;5026882;28;20029;-90
2023/07/13 07:23:52;;;;;;;12.50;6.88;;;;;;;17.12;76.79;101529.19;5028392;28;20068;-89
2023/07/13 07:26:18;;;;;;;16.40;6.57;;;;;;;17.16;76.72;101526.44;5028541;28;20032;-90
2023/07/13 07:28:44;;;;;;;14.35;6.25;;;;;;;17.14;77.17;101527.34;5027277;28;20040;-90
2023/07/13 07:31:10;;;;;;;15.35;6.47;;;;;;;17.19;76.44;101532.41;5026124;28;21605;-90
2023/07/13 07:33:35;;;;;;;16.38;6.85;;;;;;;17.23;76.28;101525.25;5026745;28;20171;-89
2023/07/13 07:36:01;;;;;;;13.50;6.43;;;;;;;17.25;76.52;101528.69;5027948;28;20575;-91
2023/07/13 07:38:27;;;;;;;11.93;6.32;;;;;;;17.30;76.46;101524.06;5027375;28;20024;-94
2023/07/13 07:40:53;;;;;;;10.50;5.65;;;;;;;17.34;76.15;101533.53;5027544;28;20029;-92
2023/07/13 07:43:19;;;;;;;12.88;6.05;;;;;;;17.38;75.49;101532.50;5027608;28;20044;-90
2023/07/13 07:45:45;;;;;;;15.32;6.13;;;;;;;17.40;75.78;101528.00;5025479;28;20083;-90
2023/07/13 07:48:11;;;;;;;10.77;5.47;;;;;;;17.43;76.40;101532.28;5024463;28;20052;-84
2023/07/13 07:50:39;;;;;;;13.52;5.75;;;;;;;17.47;75.90;101540.88;5026762;28;20369;-93
2023/07/13 07:53:10;;;;;;;14.63;5.93;;;;;;;17.53;75.23;101543.25;5026185;28;20167;-89
2023/07/13 07:55:35;;;;;;;13.77;5.63;;;;;;;17.60;74.41;101544.69;5025856;28;20021;-89
2023/07/13 07:58:01;;;;;;;15.02;6.15;;;;;;;17.62;75.15;101536.72;5027636;28;20122;-89
2023/07/13 08:00:30;;;;;;;13.55;5.75;;;;;;;17.67;74.52;101540.88;5026210;28;20053;-90
2023/07/13 08:02:55;;;;;;;12.70;5.82;;;;;;;17.75;74.28;101540.53;5023958;28;20037;-90
2023/07/13 08:05:21;;;;;;;12.82;5.28;;;;;;;17.79;74.73;101535.97;5022648;28;20366;-90
2023/07/13 08:07:46;;;;;;;10.32;5.45;;;;;;;17.85;73.55;101540.97;5027897;28;20061;-92
2023/07/13 08:10:11;;;;;;;13.43;5.47;;;;;;;17.90;73.61;101537.19;5029791;28;20100;-92
2023/07/13 08:12:40;;;;;;;13.25;5.53;;;;;;;17.96;73.29;101541.31;5028257;28;20480;-94
2023/07/13 08:15:10;;;;;;;10.05;5.22;;;;;;;18.05;72.38;101540.94;4993070;28;20029;-93
2023/07/13 08:17:35;;;;;;;11.90;5.65;;;;;;;18.16;71.59;101543.09;5024250;28;20018;-93
2023/07/13 08:20:01;;;;;;;13.32;5.15;;;;;;;18.23;71.35;101530.47;5024550;28;20037;-92
2023/07/13 08:22:27;;;;;;;11.57;4.72;;;;;;;18.26;70.38;101532.97;5009863;28;20017;-90
2023/07/13 08:24:55;;;;;;;10.25;4.78;;;;;;;18.28;72.13;101536.34;5028670;28;20097;-91
2023/07/13 08:27:25;;;;;;;12.05;4.45;;;;;;;18.31;71.42;101546.75;5027299;28;20116;-93
2023/07/13 08:29:51;;;;;;;10.27;5.00;;;;;;;18.33;69.93;101536.16;5027063;28;20515;-91
2023/07/13 08:32:17;;;;;;;8.75;4.25;;;;;;;18.31;69.02;101536.22;5008214;28;20072;-90
2023/07/13 08:34:43;;;;;;;8.60;4.53;;;;;;;18.31;68.51;101538.84;5025150;28;20380;-93
2023/07/13 08:37:09;;;;;;;8.27;4.00;;;;;;;18.38;69.80;101535.94;5025602;28;20120;-93
2023/07/13 08:39:34;;;;;;;10.75;4.32;;;;;;;18.46;69.06;101539.03;5025229;28;20060;-92
2023/07/13 08:42:21;;;;;;;9.45;4.35;;;;;;;18.55;69.34;101537.75;5025226;28;20025;-90
2023/07/13 08:45:05;;;;;;;8.23;4.00;;;;;;;18.58;67.94;101549.03;5024121;28;20104;-91
2023/07/13 08:47:35;;;;;;;6.63;3.78;;;;;;;18.58;66.22;101538.47;5024830;28;20555;-90
2023/07/13 08:50:01;;;;;;;9.53;3.63;;;;;;;18.63;67.41;101540.88;5005681;28;20025;-92
2023/07/13 08:52:38;;;;;;;8.00;3.83;;;;;;;18.73;66.76;101543.94;5025516;28;20117;-94
2023/07/13 08:55:14;;;;;;;8.00;3.85;;;;;;;18.79;66.15;101546.25;5024036;28;20107;-91
2023/07/13 08:57:46;;;;;;;8.52;3.70;;;;;;;18.89;64.96;101536.09;5024294;28;20096;-90
2023/07/13 09:00:14;;;;;;;8.75;3.80;;;;;;;18.95;65.25;101547.25;5024017;28;20366;-91
2023/07/13 09:02:59;;;;;;;11.23;4.18;;;;;;;18.98;65.71;101540.09;5024487;28;20124;-92
2023/07/13 09:05:34;;;;;;;7.82;3.50;;;;;;;18.99;64.89;101541.78;5027979;28;20040;-91
2023/07/13 09:08:31;;;;;;;10.25;3.80;;;;;;;19.07;65.97;101539.63;5024844;28;20049;-94
2023/07/13 09:11:04;;;;;;;8.63;3.65;;;;;;;19.18;65.69;101537.31;5025271;28;20014;-93
2023/07/13 09:13:43;;;;;;;8.65;3.92;;;;;;;19.26;64.10;101547.47;5024226;28;20029;-92
2023/07/13 09:16:10;;;;;;;6.35;3.47;;;;;;;19.29;61.76;101543.81;5023877;28;20480;-91
2023/07/13 09:18:39;;;;;;;7.45;3.70;;;;;;;19.34;61.91;101541.78;5023571;28;20479;-92
2023/07/13 09:21:08;;;;;;;6.65;3.53;;;;;;;19.42;61.88;101543.09;5024529;28;20059;-91
2023/07/13 09:23:35;;;;;;;8.95;4.55;;;;;;;19.47;61.07;101537.56;5024007;28;20111;-88
2023/07/13 09:26:11;;;;;;;6.80;4.28;;;;;;;19.52;61.43;101535.56;5025566;28;20113;-93
2023/07/13 09:28:43;;;;;;;8.85;4.55;;;;;;;19.58;61.81;101538.81;5023597;28;20243;-93
2023/07/13 09:31:12;;;;;;;6.65;4.00;;;;;;;19.60;60.35;101544.88;5004421;28;20029;-93
2023/07/13 09:33:38;;;;;;;7.90;3.60;;;;;;;19.65;61.64;101535.75;5023675;28;20037;-91
2023/07/13 09:36:20;;;;;;;6.53;3.67;;;;;;;19.75;62.04;101532.63;5006169;28;20036;-94
2023/07/13 09:38:48;;;;;;;7.75;3.83;;;;;;;19.77;59.19;101533.41;5034335;28;20052;-94
2023/07/13 09:43:07;;;;;;;;;;;;;;;;;;;;;
2023/07/13 09:51:56;;;;;;;;;;;;;;;;;;;;;
2023/07/13 09:54:24;;;;;;;8.98;3.33;;;;;;;19.89;59.97;101531.91;5001091;28;20195;-93
2023/07/13 09:57:01;;;;;;;6.18;3.22;;;;;;;19.87;59.80;101539.94;4998790;28;20045;-94
2023/07/13 09:59:33;;;;;;;6.10;3.40;;;;;;;19.90;58.98;101531.81;5004571;28;20049;-92
2023/07/13 10:01:59;;;;;;;7.55;3.65;;;;;;;19.95;60.48;101540.34;5008078;28;20045;-92
2023/07/13 10:04:34;;;;;;;9.30;3.63;;;;;;;20.01;59.31;101547.97;5024227;28;20026;-92
2023/07/13 10:07:12;;;;;;;7.95;3.50;;;;;;;20.03;59.33;101539.94;5023299;28;20029;-92
2023/07/13 10:09:38;;;;;;;6.78;3.75;;;;;;;20.01;58.23;101541.81;5023014;28;20041;-91
2023/07/13 10:12:12;;;;;;;6.75;3.83;;;;;;;20.00;58.28;101556.81;5023313;28;20025;-90
2023/07/13 10:14:39;;;;;;;8.65;3.70;;;;;;;20.04;57.65;101548.72;5027649;28;20026;-92
2023/07/13 10:17:08;;;;;;;5.38;3.50;;;;;;;20.07;56.58;101551.22;5008217;28;20088;-90
2023/07/13 10:19:35;;;;;;;6.90;3.17;;;;;;;20.10;56.66;101551.00;5030420;28;20481;-93
2023/07/13 10:22:13;;;;;;;6.95;3.20;;;;;;;20.15;56.54;101544.53;5025127;28;20397;-93
2023/07/13 10:24:41;;;;;;;7.40;3.20;;;;;;;20.27;57.05;101542.19;5036716;28;20104;-93
2023/07/13 10:27:15;;;;;;;6.43;2.95;;;;;;;20.35;57.32;101544.38;5032150;28;20030;-96
2023/07/13 10:32:34;;;;;;;4.38;2.70;;;;;;;20.43;56.14;101545.66;4960910;28;20035;-94
2023/07/13 10:35:01;;;;;;;7.03;2.60;;;;;;;20.45;55.41;101543.78;5017028;28;20447;-93
2023/07/13 10:37:30;;;;;;;5.45;2.58;;;;;;;20.46;56.19;101537.56;5026083;28;20033;-91
2023/07/13 10:39:57;;;;;;;6.18;2.42;;;;;;;20.54;56.39;101542.41;5005932;28;20029;-90
2023/07/13 10:42:42;;;;;;;3.80;2.47;;;;;;;20.64;56.49;101540.09;5024816;28;20392;-90
2023/07/13 10:45:19;;;;;;;5.55;2.60;;;;;;;20.73;55.78;101528.97;5029544;28;20108;-92
2023/07/13 10:47:46;;;;;;;5.50;2.30;;;;;;;20.83;53.99;101549.66;5031762;28;20075;-92
2023/07/13 10:50:19;;;;;;;7.63;2.30;;;;;;;20.90;53.96;101541.28;5025094;28;20037;-93
2023/07/13 10:52:46;;;;;;;7.32;2.10;;;;;;;20.98;53.30;101543.47;5028851;28;20033;-91
2023/07/13 10:55:55;;;;;;;4.22;1.90;;;;;;;21.07;55.25;101553.50;5026166;28;20037;-92
2023/07/13 10:58:31;;;;;;;7.65;2.30;;;;;;;21.04;55.45;101569.53;4998113;28;20076;-91
2023/07/13 11:01:08;;;;;;;3.03;2.03;;;;;;;20.96;56.42;101577.09;5026192;28;20105;-92
2023/07/13 11:03:37;;;;;;;3.92;2.17;;;;;;;20.82;56.42;101579.69;5025641;28;20381;-93
2023/07/13 11:06:12;;;;;;;4.60;2.70;;;;;;;20.63;58.02;101596.56;5026294;28;20053;-92
2023/07/13 11:08:47;;;;;;;5.38;2.40;;;;;;;20.45;58.42;101598.41;5026578;28;20057;-92
2023/07/13 11:11:36;;;;;;;8.55;2.78;;;;;;;20.32;60.49;101598.28;5025956;28;20120;-88
2023/07/13 11:14:05;;;;;;;6.18;2.50;;;;;;;20.23;61.93;101604.03;5023043;28;20025;-91
2023/07/13 11:16:48;;;;;;;4.97;2.50;;;;;;;20.23;60.18;101596.13;5008983;28;20017;-89
2023/07/13 11:19:16;;;;;;;5.78;2.83;;;;;;;20.25;60.16;101591.59;5007272;28;20037;-91
2023/07/13 11:22:02;;;;;;;5.57;3.13;;;;;;;20.31;59.81;101593.91;5022089;28;20033;-91
2023/07/13 11:24:52;;;;;;;4.30;2.92;;;;;;;20.46;59.82;101594.84;5023228;28;20029;-90
2023/07/13 11:27:32;;;;;;;5.22;3.00;;;;;;;20.62;60.67;101586.91;5022904;28;20037;-93
2023/07/13 11:30:27;;;;;;;8.02;3.40;;;;;;;20.83;59.88;101576.09;5025164;28;20071;-89
2023/07/13 11:33:05;;;;;;;4.55;2.85;;;;;;;21.03;59.84;101570.47;4954647;28;20050;-92
2023/07/13 11:35:33;;;;;;;8.43;3.38;;;;;;;21.14;56.35;101576.94;5003802;28;20026;-91
2023/07/13 11:37:59;;;;;;;8.15;3.55;;;;;;;21.19;57.37;101566.94;5022807;28;20120;-90